sensor_id;sensor_type;location;lat;lon;timestamp;P1;durP1;ratioP1;P2;durP2;ratioP2
75634;SDS011;64227;48.724;9.104;2023-03-01T00:00:10;7.45;;;3.67;;
75634;SDS011;64227;48.724;9.104;2023-03-01T00:02:36;5.50;;;2.38;;
75634;SDS011;64227;48.724;9.104;2023-03-01T00:05:02;5.05;;;2.65;;
75634;SDS011;64227;48.724;9.104;2023-03-01T00:07:27;7.63;;;3.95;;
75634;SDS011;64227;48.724;9.104;2023-03-01T00:09:52;5.85;;;2.90;;
75634;SDS011;64227;48.724;9.104;2023-03-01T00:12:19;8.55;;;3.95;;
75634;SDS011;64227;48.724;9.104;2023-03-01T00:14:44;7.32;;;2.70;;
75634;SDS011;64227;48.724;9.104;2023-03-01T00:17:09;6.05;;;2.65;;
75634;SDS011;64227;48.724;9.104;2023-03-01T00:19:35;7.50;;;3.08;;
75634;SDS011;64227;48.724;9.104;2023-03-01T00:22:00;5.72;;;2.90;;
75634;SDS011;64227;48.724;9.104;2023-03-01T00:24:25;6.38;;;2.72;;
75634;SDS011;64227;48.724;9.104;2023-03-01T00:26:54;5.72;;;2.83;;
75634;SDS011;64227;48.724;9.104;2023-03-01T00:29:23;7.22;;;3.45;;
75634;SDS011;64227;48.724;9.104;2023-03-01T00:31:49;5.78;;;3.10;;
75634;SDS011;64227;48.724;9.104;2023-03-01T00:34:14;6.10;;;3.08;;
75634;SDS011;64227;48.724;9.104;2023-03-01T00:36:40;7.90;;;2.83;;
75634;SDS011;64227;48.724;9.104;2023-03-01T00:39:07;8.40;;;3.90;;
75634;SDS011;64227;48.724;9.104;2023-03-01T00:41:36;6.63;;;3.58;;
75634;SDS011;64227;48.724;9.104;2023-03-01T00:44:01;7.25;;;3.83;;
75634;SDS011;64227;48.724;9.104;2023-03-01T00:46:27;11.30;;;5.40;;
75634;SDS011;64227;48.724;9.104;2023-03-01T00:48:54;7.07;;;3.42;;
75634;SDS011;64227;48.724;9.104;2023-03-01T00:51:21;6.70;;;3.50;;
75634;SDS011;64227;48.724;9.104;2023-03-01T00:53:55;6.63;;;2.75;;
75634;SDS011;64227;48.724;9.104;2023-03-01T00:56:22;6.70;;;3.13;;
75634;SDS011;64227;48.724;9.104;2023-03-01T00:58:47;9.70;;;3.80;;
75634;SDS011;64227;48.724;9.104;2023-03-01T01:01:14;9.75;;;4.10;;
75634;SDS011;64227;48.724;9.104;2023-03-01T01:03:45;8.43;;;3.40;;
75634;SDS011;64227;48.724;9.104;2023-03-01T01:06:21;5.40;;;3.15;;
75634;SDS011;64227;48.724;9.104;2023-03-01T01:08:49;5.25;;;3.03;;
75634;SDS011;64227;48.724;9.104;2023-03-01T01:11:15;7.35;;;4.35;;
75634;SDS011;64227;48.724;9.104;2023-03-01T01:13:41;6.80;;;3.90;;
75634;SDS011;64227;48.724;9.104;2023-03-01T01:16:07;7.35;;;3.08;;
75634;SDS011;64227;48.724;9.104;2023-03-01T01:18:33;6.15;;;2.75;;
75634;SDS011;64227;48.724;9.104;2023-03-01T01:21:03;5.63;;;2.95;;
75634;SDS011;64227;48.724;9.104;2023-03-01T01:23:29;6.80;;;3.10;;
75634;SDS011;64227;48.724;9.104;2023-03-01T01:25:54;8.20;;;4.47;;
75634;SDS011;64227;48.724;9.104;2023-03-01T01:28:20;7.80;;;3.85;;
75634;SDS011;64227;48.724;9.104;2023-03-01T01:30:45;7.50;;;3.35;;
75634;SDS011;64227;48.724;9.104;2023-03-01T01:33:10;8.38;;;4.00;;
75634;SDS011;64227;48.724;9.104;2023-03-01T01:35:36;9.57;;;5.25;;
75634;SDS011;64227;48.724;9.104;2023-03-01T01:38:01;7.38;;;4.38;;
75634;SDS011;64227;48.724;9.104;2023-03-01T01:40:26;7.53;;;4.33;;
75634;SDS011;64227;48.724;9.104;2023-03-01T01:42:51;9.83;;;4.37;;
75634;SDS011;64227;48.724;9.104;2023-03-01T01:48:10;8.07;;;4.13;;
75634;SDS011;64227;48.724;9.104;2023-03-01T01:50:39;8.32;;;4.90;;
75634;SDS011;64227;48.724;9.104;2023-03-01T01:53:06;7.47;;;4.05;;
75634;SDS011;64227;48.724;9.104;2023-03-01T01:55:36;8.95;;;3.58;;
75634;SDS011;64227;48.724;9.104;2023-03-01T01:58:03;6.35;;;3.97;;
75634;SDS011;64227;48.724;9.104;2023-03-01T02:00:30;8.68;;;4.28;;
75634;SDS011;64227;48.724;9.104;2023-03-01T02:03:03;8.00;;;4.25;;
75634;SDS011;64227;48.724;9.104;2023-03-01T02:08:15;5.97;;;3.25;;
75634;SDS011;64227;48.724;9.104;2023-03-01T02:10:41;5.80;;;2.80;;
75634;SDS011;64227;48.724;9.104;2023-03-01T02:13:07;5.68;;;3.47;;
75634;SDS011;64227;48.724;9.104;2023-03-01T02:15:33;6.85;;;3.47;;
75634;SDS011;64227;48.724;9.104;2023-03-01T02:18:00;8.50;;;3.92;;
75634;SDS011;64227;48.724;9.104;2023-03-01T02:20:33;9.30;;;5.00;;
75634;SDS011;64227;48.724;9.104;2023-03-01T02:23:03;8.75;;;4.43;;
75634;SDS011;64227;48.724;9.104;2023-03-01T02:30:40;7.05;;;4.20;;
75634;SDS011;64227;48.724;9.104;2023-03-01T02:33:26;7.78;;;4.55;;
75634;SDS011;64227;48.724;9.104;2023-03-01T02:35:52;11.15;;;5.25;;
75634;SDS011;64227;48.724;9.104;2023-03-01T02:38:18;9.23;;;5.00;;
75634;SDS011;64227;48.724;9.104;2023-03-01T02:40:44;6.32;;;3.38;;
75634;SDS011;64227;48.724;9.104;2023-03-01T02:43:10;5.97;;;3.25;;
75634;SDS011;64227;48.724;9.104;2023-03-01T02:45:37;6.32;;;3.50;;
75634;SDS011;64227;48.724;9.104;2023-03-01T02:48:02;8.70;;;4.90;;
75634;SDS011;64227;48.724;9.104;2023-03-01T02:52:57;7.77;;;3.57;;
75634;SDS011;64227;48.724;9.104;2023-03-01T02:55:27;7.85;;;4.28;;
75634;SDS011;64227;48.724;9.104;2023-03-01T02:57:52;8.45;;;4.32;;
75634;SDS011;64227;48.724;9.104;2023-03-01T03:00:26;5.82;;;3.58;;
75634;SDS011;64227;48.724;9.104;2023-03-01T03:02:55;5.30;;;3.38;;
75634;SDS011;64227;48.724;9.104;2023-03-01T03:05:29;10.10;;;4.95;;
75634;SDS011;64227;48.724;9.104;2023-03-01T03:07:55;11.57;;;4.47;;
75634;SDS011;64227;48.724;9.104;2023-03-01T03:10:25;8.57;;;3.90;;
75634;SDS011;64227;48.724;9.104;2023-03-01T03:12:55;8.55;;;3.92;;
75634;SDS011;64227;48.724;9.104;2023-03-01T03:15:23;9.88;;;4.75;;
75634;SDS011;64227;48.724;9.104;2023-03-01T03:17:49;8.18;;;4.68;;
75634;SDS011;64227;48.724;9.104;2023-03-01T03:20:15;10.52;;;5.55;;
75634;SDS011;64227;48.724;9.104;2023-03-01T03:22:44;12.65;;;5.95;;
75634;SDS011;64227;48.724;9.104;2023-03-01T03:25:10;12.90;;;5.82;;
75634;SDS011;64227;48.724;9.104;2023-03-01T03:27:37;13.75;;;5.70;;
75634;SDS011;64227;48.724;9.104;2023-03-01T03:30:03;7.50;;;4.45;;
75634;SDS011;64227;48.724;9.104;2023-03-01T03:32:33;11.73;;;5.75;;
75634;SDS011;64227;48.724;9.104;2023-03-01T03:35:03;10.70;;;5.28;;
75634;SDS011;64227;48.724;9.104;2023-03-01T03:37:34;11.10;;;4.80;;
75634;SDS011;64227;48.724;9.104;2023-03-01T03:40:24;10.90;;;5.13;;
75634;SDS011;64227;48.724;9.104;2023-03-01T03:42:51;10.73;;;5.25;;
75634;SDS011;64227;48.724;9.104;2023-03-01T03:45:17;8.98;;;4.57;;
75634;SDS011;64227;48.724;9.104;2023-03-01T03:47:42;11.63;;;5.13;;
75634;SDS011;64227;48.724;9.104;2023-03-01T03:50:11;8.35;;;4.25;;
75634;SDS011;64227;48.724;9.104;2023-03-01T03:52:38;12.45;;;5.63;;
75634;SDS011;64227;48.724;9.104;2023-03-01T03:55:04;10.52;;;5.05;;
75634;SDS011;64227;48.724;9.104;2023-03-01T03:57:39;10.93;;;6.30;;
75634;SDS011;64227;48.724;9.104;2023-03-01T04:00:06;10.77;;;5.38;;
75634;SDS011;64227;48.724;9.104;2023-03-01T04:02:38;9.32;;;4.88;;
75634;SDS011;64227;48.724;9.104;2023-03-01T04:05:04;7.43;;;3.88;;
75634;SDS011;64227;48.724;9.104;2023-03-01T04:07:30;8.55;;;4.55;;
75634;SDS011;64227;48.724;9.104;2023-03-01T04:09:55;10.70;;;5.15;;
75634;SDS011;64227;48.724;9.104;2023-03-01T04:12:20;8.23;;;4.32;;
75634;SDS011;64227;48.724;9.104;2023-03-01T04:14:47;9.93;;;5.15;;
75634;SDS011;64227;48.724;9.104;2023-03-01T04:17:13;13.45;;;6.05;;
75634;SDS011;64227;48.724;9.104;2023-03-01T04:19:38;13.27;;;5.77;;
75634;SDS011;64227;48.724;9.104;2023-03-01T04:22:03;11.30;;;5.30;;
75634;SDS011;64227;48.724;9.104;2023-03-01T04:24:34;9.00;;;5.32;;
75634;SDS011;64227;48.724;9.104;2023-03-01T04:27:00;13.57;;;5.80;;
75634;SDS011;64227;48.724;9.104;2023-03-01T04:29:25;11.50;;;6.57;;
75634;SDS011;64227;48.724;9.104;2023-03-01T04:31:50;11.75;;;5.93;;
75634;SDS011;64227;48.724;9.104;2023-03-01T04:34:15;10.88;;;5.00;;
75634;SDS011;64227;48.724;9.104;2023-03-01T04:36:41;8.85;;;4.85;;
75634;SDS011;64227;48.724;9.104;2023-03-01T04:39:06;12.45;;;6.07;;
75634;SDS011;64227;48.724;9.104;2023-03-01T04:41:37;10.90;;;5.60;;
75634;SDS011;64227;48.724;9.104;2023-03-01T04:44:07;9.45;;;4.97;;
75634;SDS011;64227;48.724;9.104;2023-03-01T04:46:34;12.30;;;5.38;;
75634;SDS011;64227;48.724;9.104;2023-03-01T04:48:59;9.25;;;5.28;;
75634;SDS011;64227;48.724;9.104;2023-03-01T04:51:24;7.90;;;4.43;;
75634;SDS011;64227;48.724;9.104;2023-03-01T04:53:50;9.70;;;5.30;;
75634;SDS011;64227;48.724;9.104;2023-03-01T04:56:15;10.55;;;5.30;;
75634;SDS011;64227;48.724;9.104;2023-03-01T04:58:43;15.52;;;6.72;;
75634;SDS011;64227;48.724;9.104;2023-03-01T05:01:09;11.88;;;5.13;;
75634;SDS011;64227;48.724;9.104;2023-03-01T05:03:40;13.63;;;5.45;;
75634;SDS011;64227;48.724;9.104;2023-03-01T05:06:06;11.15;;;5.40;;
75634;SDS011;64227;48.724;9.104;2023-03-01T05:08:31;10.10;;;4.97;;
75634;SDS011;64227;48.724;9.104;2023-03-01T05:10:59;14.98;;;6.53;;
75634;SDS011;64227;48.724;9.104;2023-03-01T05:13:24;10.63;;;6.13;;
75634;SDS011;64227;48.724;9.104;2023-03-01T05:15:57;10.30;;;5.85;;
75634;SDS011;64227;48.724;9.104;2023-03-01T05:18:26;11.52;;;5.75;;
75634;SDS011;64227;48.724;9.104;2023-03-01T05:20:52;13.77;;;6.57;;
75634;SDS011;64227;48.724;9.104;2023-03-01T05:23:21;12.70;;;6.65;;
75634;SDS011;64227;48.724;9.104;2023-03-01T05:25:46;12.65;;;6.32;;
75634;SDS011;64227;48.724;9.104;2023-03-01T05:28:11;11.77;;;5.82;;
75634;SDS011;64227;48.724;9.104;2023-03-01T05:30:37;13.52;;;6.03;;
75634;SDS011;64227;48.724;9.104;2023-03-01T05:33:06;12.93;;;6.70;;
75634;SDS011;64227;48.724;9.104;2023-03-01T05:35:35;12.43;;;5.63;;
75634;SDS011;64227;48.724;9.104;2023-03-01T05:38:00;12.00;;;6.35;;
75634;SDS011;64227;48.724;9.104;2023-03-01T05:40:27;11.80;;;5.93;;
75634;SDS011;64227;48.724;9.104;2023-03-01T05:42:55;11.68;;;6.55;;
75634;SDS011;64227;48.724;9.104;2023-03-01T05:45:22;12.23;;;6.57;;
75634;SDS011;64227;48.724;9.104;2023-03-01T05:47:48;12.10;;;6.13;;
75634;SDS011;64227;48.724;9.104;2023-03-01T05:50:21;11.88;;;6.32;;
75634;SDS011;64227;48.724;9.104;2023-03-01T05:52:49;12.20;;;6.35;;
75634;SDS011;64227;48.724;9.104;2023-03-01T05:55:16;15.63;;;6.63;;
75634;SDS011;64227;48.724;9.104;2023-03-01T05:57:43;12.35;;;6.50;;
75634;SDS011;64227;48.724;9.104;2023-03-01T06:00:09;13.77;;;6.65;;
75634;SDS011;64227;48.724;9.104;2023-03-01T06:02:35;12.77;;;6.95;;
75634;SDS011;64227;48.724;9.104;2023-03-01T06:05:00;12.75;;;6.35;;
75634;SDS011;64227;48.724;9.104;2023-03-01T06:07:26;14.75;;;7.45;;
75634;SDS011;64227;48.724;9.104;2023-03-01T06:09:51;16.10;;;7.00;;
75634;SDS011;64227;48.724;9.104;2023-03-01T06:12:16;11.30;;;6.10;;
75634;SDS011;64227;48.724;9.104;2023-03-01T06:14:42;12.15;;;7.68;;
75634;SDS011;64227;48.724;9.104;2023-03-01T06:17:07;15.18;;;7.45;;
75634;SDS011;64227;48.724;9.104;2023-03-01T06:19:33;13.77;;;7.60;;
75634;SDS011;64227;48.724;9.104;2023-03-01T06:21:58;13.98;;;6.45;;
75634;SDS011;64227;48.724;9.104;2023-03-01T06:24:23;10.60;;;5.50;;
75634;SDS011;64227;48.724;9.104;2023-03-01T06:26:48;9.88;;;5.20;;
75634;SDS011;64227;48.724;9.104;2023-03-01T06:29:14;11.43;;;6.05;;
75634;SDS011;64227;48.724;9.104;2023-03-01T06:31:39;10.63;;;4.75;;
75634;SDS011;64227;48.724;9.104;2023-03-01T06:34:04;14.98;;;6.07;;
75634;SDS011;64227;48.724;9.104;2023-03-01T06:36:30;11.15;;;6.07;;
75634;SDS011;64227;48.724;9.104;2023-03-01T06:38:55;9.10;;;4.82;;
75634;SDS011;64227;48.724;9.104;2023-03-01T06:41:20;11.93;;;6.20;;
75634;SDS011;64227;48.724;9.104;2023-03-01T06:43:46;12.73;;;5.97;;
75634;SDS011;64227;48.724;9.104;2023-03-01T06:46:11;11.32;;;6.07;;
75634;SDS011;64227;48.724;9.104;2023-03-01T06:48:36;14.00;;;6.13;;
75634;SDS011;64227;48.724;9.104;2023-03-01T06:51:02;12.25;;;6.72;;
75634;SDS011;64227;48.724;9.104;2023-03-01T06:53:28;13.02;;;6.95;;
75634;SDS011;64227;48.724;9.104;2023-03-01T06:55:57;12.20;;;5.90;;
75634;SDS011;64227;48.724;9.104;2023-03-01T06:58:24;14.32;;;7.28;;
75634;SDS011;64227;48.724;9.104;2023-03-01T07:00:49;14.70;;;8.07;;
75634;SDS011;64227;48.724;9.104;2023-03-01T07:03:14;16.58;;;7.22;;
75634;SDS011;64227;48.724;9.104;2023-03-01T07:05:39;14.02;;;6.95;;
75634;SDS011;64227;48.724;9.104;2023-03-01T07:08:05;15.90;;;7.30;;
75634;SDS011;64227;48.724;9.104;2023-03-01T07:10:30;13.73;;;7.05;;
75634;SDS011;64227;48.724;9.104;2023-03-01T07:12:58;14.40;;;7.07;;
75634;SDS011;64227;48.724;9.104;2023-03-01T07:15:25;15.25;;;7.63;;
75634;SDS011;64227;48.724;9.104;2023-03-01T07:17:51;16.85;;;8.18;;
75634;SDS011;64227;48.724;9.104;2023-03-01T07:20:17;16.38;;;6.90;;
75634;SDS011;64227;48.724;9.104;2023-03-01T07:22:43;16.30;;;7.97;;
75634;SDS011;64227;48.724;9.104;2023-03-01T07:25:09;18.98;;;9.40;;
75634;SDS011;64227;48.724;9.104;2023-03-01T07:27:34;17.08;;;7.80;;
75634;SDS011;64227;48.724;9.104;2023-03-01T07:30:00;15.75;;;8.00;;
75634;SDS011;64227;48.724;9.104;2023-03-01T07:32:25;12.77;;;7.33;;
75634;SDS011;64227;48.724;9.104;2023-03-01T07:34:51;13.48;;;7.22;;
75634;SDS011;64227;48.724;9.104;2023-03-01T07:37:16;10.38;;;6.85;;
75634;SDS011;64227;48.724;9.104;2023-03-01T07:39:41;10.82;;;7.00;;
75634;SDS011;64227;48.724;9.104;2023-03-01T07:42:07;19.33;;;8.68;;
75634;SDS011;64227;48.724;9.104;2023-03-01T07:44:32;15.27;;;8.40;;
75634;SDS011;64227;48.724;9.104;2023-03-01T07:46:59;13.02;;;7.57;;
75634;SDS011;64227;48.724;9.104;2023-03-01T07:49:24;15.20;;;7.80;;
75634;SDS011;64227;48.724;9.104;2023-03-01T07:51:51;12.95;;;6.28;;
75634;SDS011;64227;48.724;9.104;2023-03-01T07:54:16;10.38;;;6.60;;
75634;SDS011;64227;48.724;9.104;2023-03-01T07:56:42;12.55;;;7.22;;
75634;SDS011;64227;48.724;9.104;2023-03-01T07:59:08;13.15;;;7.47;;
75634;SDS011;64227;48.724;9.104;2023-03-01T08:01:33;10.40;;;5.82;;
75634;SDS011;64227;48.724;9.104;2023-03-01T08:03:58;12.88;;;7.63;;
75634;SDS011;64227;48.724;9.104;2023-03-01T08:06:24;11.73;;;6.50;;
75634;SDS011;64227;48.724;9.104;2023-03-01T08:08:49;12.45;;;7.63;;
75634;SDS011;64227;48.724;9.104;2023-03-01T08:11:14;12.25;;;7.80;;
75634;SDS011;64227;48.724;9.104;2023-03-01T08:13:40;10.40;;;6.78;;
75634;SDS011;64227;48.724;9.104;2023-03-01T08:16:07;12.85;;;7.35;;
75634;SDS011;64227;48.724;9.104;2023-03-01T08:18:35;12.00;;;7.40;;
75634;SDS011;64227;48.724;9.104;2023-03-01T08:21:01;13.02;;;7.57;;
75634;SDS011;64227;48.724;9.104;2023-03-01T08:23:30;14.07;;;8.45;;
75634;SDS011;64227;48.724;9.104;2023-03-01T08:26:02;12.85;;;6.93;;
75634;SDS011;64227;48.724;9.104;2023-03-01T08:28:31;12.07;;;7.07;;
75634;SDS011;64227;48.724;9.104;2023-03-01T08:30:57;10.88;;;7.03;;
75634;SDS011;64227;48.724;9.104;2023-03-01T08:33:22;10.93;;;6.80;;
75634;SDS011;64227;48.724;9.104;2023-03-01T08:35:47;11.73;;;7.63;;
75634;SDS011;64227;48.724;9.104;2023-03-01T08:38:13;12.63;;;7.25;;
75634;SDS011;64227;48.724;9.104;2023-03-01T08:40:38;13.63;;;7.85;;
75634;SDS011;64227;48.724;9.104;2023-03-01T08:43:03;15.20;;;8.77;;
75634;SDS011;64227;48.724;9.104;2023-03-01T08:45:29;11.68;;;7.28;;
75634;SDS011;64227;48.724;9.104;2023-03-01T08:47:54;12.45;;;7.70;;
75634;SDS011;64227;48.724;9.104;2023-03-01T08:50:20;10.65;;;6.78;;
75634;SDS011;64227;48.724;9.104;2023-03-01T08:52:45;16.58;;;6.82;;
75634;SDS011;64227;48.724;9.104;2023-03-01T08:55:10;12.73;;;7.22;;
75634;SDS011;64227;48.724;9.104;2023-03-01T08:57:36;11.32;;;6.85;;
75634;SDS011;64227;48.724;9.104;2023-03-01T09:00:01;13.77;;;8.25;;
75634;SDS011;64227;48.724;9.104;2023-03-01T09:02:28;13.27;;;7.63;;
75634;SDS011;64227;48.724;9.104;2023-03-01T09:04:53;12.10;;;7.88;;
75634;SDS011;64227;48.724;9.104;2023-03-01T09:07:18;12.70;;;7.93;;
75634;SDS011;64227;48.724;9.104;2023-03-01T09:09:44;12.93;;;7.63;;
75634;SDS011;64227;48.724;9.104;2023-03-01T09:12:09;10.85;;;7.57;;
75634;SDS011;64227;48.724;9.104;2023-03-01T09:14:34;13.45;;;8.10;;
75634;SDS011;64227;48.724;9.104;2023-03-01T09:17:02;10.75;;;7.07;;
75634;SDS011;64227;48.724;9.104;2023-03-01T09:19:28;13.32;;;8.70;;
75634;SDS011;64227;48.724;9.104;2023-03-01T09:21:53;12.63;;;8.07;;
75634;SDS011;64227;48.724;9.104;2023-03-01T09:24:20;11.43;;;7.35;;
75634;SDS011;64227;48.724;9.104;2023-03-01T09:26:46;13.52;;;8.27;;
75634;SDS011;64227;48.724;9.104;2023-03-01T09:29:11;13.65;;;8.65;;
75634;SDS011;64227;48.724;9.104;2023-03-01T09:31:37;14.00;;;9.05;;
75634;SDS011;64227;48.724;9.104;2023-03-01T09:34:03;13.23;;;8.73;;
75634;SDS011;64227;48.724;9.104;2023-03-01T09:36:29;13.73;;;8.05;;
75634;SDS011;64227;48.724;9.104;2023-03-01T09:38:54;10.90;;;7.43;;
75634;SDS011;64227;48.724;9.104;2023-03-01T09:43:52;12.20;;;7.57;;
75634;SDS011;64227;48.724;9.104;2023-03-01T09:46:29;13.82;;;8.13;;
75634;SDS011;64227;48.724;9.104;2023-03-01T09:48:58;12.88;;;8.35;;
75634;SDS011;64227;48.724;9.104;2023-03-01T09:51:29;14.77;;;8.85;;
75634;SDS011;64227;48.724;9.104;2023-03-01T09:53:55;15.60;;;9.40;;
75634;SDS011;64227;48.724;9.104;2023-03-01T10:01:52;15.27;;;9.73;;
75634;SDS011;64227;48.724;9.104;2023-03-01T10:09:34;13.02;;;9.52;;
75634;SDS011;64227;48.724;9.104;2023-03-01T10:12:02;14.55;;;9.50;;
75634;SDS011;64227;48.724;9.104;2023-03-01T10:14:45;14.50;;;9.98;;
75634;SDS011;64227;48.724;9.104;2023-03-01T10:19:45;12.88;;;8.55;;
75634;SDS011;64227;48.724;9.104;2023-03-01T10:22:27;13.63;;;9.00;;
75634;SDS011;64227;48.724;9.104;2023-03-01T10:24:54;10.60;;;8.30;;
75634;SDS011;64227;48.724;9.104;2023-03-01T10:27:25;11.40;;;7.78;;
75634;SDS011;64227;48.724;9.104;2023-03-01T10:30:02;18.33;;;10.27;;
75634;SDS011;64227;48.724;9.104;2023-03-01T10:32:32;11.18;;;7.78;;
75634;SDS011;64227;48.724;9.104;2023-03-01T10:34:57;12.68;;;9.52;;
75634;SDS011;64227;48.724;9.104;2023-03-01T10:37:23;10.10;;;8.02;;
75634;SDS011;64227;48.724;9.104;2023-03-01T10:39:58;12.20;;;9.20;;
75634;SDS011;64227;48.724;9.104;2023-03-01T10:42:52;13.48;;;8.55;;
75634;SDS011;64227;48.724;9.104;2023-03-01T10:47:41;13.33;;;9.23;;
75634;SDS011;64227;48.724;9.104;2023-03-01T10:50:20;11.48;;;9.13;;
75634;SDS011;64227;48.724;9.104;2023-03-01T10:52:59;18.90;;;11.48;;
75634;SDS011;64227;48.724;9.104;2023-03-01T10:55:28;15.50;;;10.38;;
75634;SDS011;64227;48.724;9.104;2023-03-01T11:00:45;14.60;;;9.98;;
75634;SDS011;64227;48.724;9.104;2023-03-01T11:03:14;12.57;;;8.73;;
75634;SDS011;64227;48.724;9.104;2023-03-01T11:05:51;11.52;;;7.90;;
75634;SDS011;64227;48.724;9.104;2023-03-01T11:08:33;11.13;;;8.13;;
75634;SDS011;64227;48.724;9.104;2023-03-01T11:11:14;14.15;;;8.38;;
75634;SDS011;64227;48.724;9.104;2023-03-01T11:13:56;13.65;;;10.60;;
75634;SDS011;64227;48.724;9.104;2023-03-01T11:16:41;15.85;;;9.98;;
75634;SDS011;64227;48.724;9.104;2023-03-01T11:21:37;14.75;;;10.25;;
75634;SDS011;64227;48.724;9.104;2023-03-01T11:24:05;10.38;;;8.02;;
75634;SDS011;64227;48.724;9.104;2023-03-01T11:26:34;11.13;;;8.45;;
75634;SDS011;64227;48.724;9.104;2023-03-01T11:29:04;14.75;;;9.07;;
75634;SDS011;64227;48.724;9.104;2023-03-01T11:31:31;11.80;;;9.20;;
75634;SDS011;64227;48.724;9.104;2023-03-01T11:33:58;12.38;;;8.73;;
75634;SDS011;64227;48.724;9.104;2023-03-01T11:39:16;10.48;;;8.23;;
75634;SDS011;64227;48.724;9.104;2023-03-01T11:41:51;12.35;;;9.65;;
75634;SDS011;64227;48.724;9.104;2023-03-01T11:44:25;12.57;;;8.70;;
75634;SDS011;64227;48.724;9.104;2023-03-01T11:52:29;9.25;;;7.43;;
75634;SDS011;64227;48.724;9.104;2023-03-01T11:58:08;12.45;;;9.05;;
75634;SDS011;64227;48.724;9.104;2023-03-01T12:07:20;11.05;;;8.50;;
75634;SDS011;64227;48.724;9.104;2023-03-01T12:10:16;11.45;;;7.93;;
75634;SDS011;64227;48.724;9.104;2023-03-01T12:15:43;10.77;;;8.02;;
75634;SDS011;64227;48.724;9.104;2023-03-01T12:26:29;9.70;;;7.38;;
75634;SDS011;64227;48.724;9.104;2023-03-01T12:29:01;10.57;;;7.82;;
75634;SDS011;64227;48.724;9.104;2023-03-01T12:34:55;11.63;;;9.13;;
75634;SDS011;64227;48.724;9.104;2023-03-01T12:37:36;14.90;;;10.70;;
75634;SDS011;64227;48.724;9.104;2023-03-01T12:45:31;10.00;;;7.63;;
75634;SDS011;64227;48.724;9.104;2023-03-01T12:51:02;9.90;;;8.27;;
75634;SDS011;64227;48.724;9.104;2023-03-01T12:53:32;10.10;;;8.30;;
75634;SDS011;64227;48.724;9.104;2023-03-01T12:56:01;9.90;;;7.47;;
75634;SDS011;64227;48.724;9.104;2023-03-01T13:04:17;12.18;;;7.50;;
75634;SDS011;64227;48.724;9.104;2023-03-01T13:07:11;9.90;;;7.75;;
75634;SDS011;64227;48.724;9.104;2023-03-01T13:10:05;9.50;;;7.30;;
75634;SDS011;64227;48.724;9.104;2023-03-01T13:15:24;8.90;;;7.35;;
75634;SDS011;64227;48.724;9.104;2023-03-01T13:17:58;10.15;;;6.95;;
75634;SDS011;64227;48.724;9.104;2023-03-01T13:23:06;10.02;;;7.57;;
75634;SDS011;64227;48.724;9.104;2023-03-01T13:28:39;11.23;;;7.97;;
75634;SDS011;64227;48.724;9.104;2023-03-01T13:33:46;9.70;;;7.18;;
75634;SDS011;64227;48.724;9.104;2023-03-01T13:39:18;8.45;;;6.55;;
75634;SDS011;64227;48.724;9.104;2023-03-01T13:41:58;10.98;;;7.47;;
75634;SDS011;64227;48.724;9.104;2023-03-01T13:44:35;11.30;;;8.05;;
75634;SDS011;64227;48.724;9.104;2023-03-01T13:50:15;12.13;;;6.55;;
75634;SDS011;64227;48.724;9.104;2023-03-01T13:54:57;12.15;;;7.05;;
75634;SDS011;64227;48.724;9.104;2023-03-01T13:57:26;11.60;;;6.55;;
75634;SDS011;64227;48.724;9.104;2023-03-01T13:59:57;12.20;;;7.78;;
75634;SDS011;64227;48.724;9.104;2023-03-01T14:02:22;11.23;;;7.07;;
75634;SDS011;64227;48.724;9.104;2023-03-01T14:04:57;11.27;;;7.32;;
75634;SDS011;64227;48.724;9.104;2023-03-01T14:07:24;10.38;;;7.13;;
75634;SDS011;64227;48.724;9.104;2023-03-01T14:09:54;11.32;;;7.63;;
75634;SDS011;64227;48.724;9.104;2023-03-01T14:12:32;11.10;;;7.65;;
75634;SDS011;64227;48.724;9.104;2023-03-01T14:15:27;10.77;;;7.13;;
75634;SDS011;64227;48.724;9.104;2023-03-01T14:18:31;11.90;;;7.50;;
75634;SDS011;64227;48.724;9.104;2023-03-01T14:20:50;14.88;;;8.55;;
75634;SDS011;64227;48.724;9.104;2023-03-01T14:23:20;13.07;;;8.38;;
75634;SDS011;64227;48.724;9.104;2023-03-01T14:25:48;12.30;;;8.25;;
75634;SDS011;64227;48.724;9.104;2023-03-01T14:28:16;12.70;;;8.27;;
75634;SDS011;64227;48.724;9.104;2023-03-01T14:30:44;12.15;;;8.07;;
75634;SDS011;64227;48.724;9.104;2023-03-01T14:36:05;13.38;;;8.90;;
75634;SDS011;64227;48.724;9.104;2023-03-01T14:41:01;13.10;;;8.55;;
75634;SDS011;64227;48.724;9.104;2023-03-01T14:43:31;13.68;;;8.20;;
75634;SDS011;64227;48.724;9.104;2023-03-01T14:45:57;18.02;;;8.55;;
75634;SDS011;64227;48.724;9.104;2023-03-01T14:48:22;13.52;;;9.18;;
75634;SDS011;64227;48.724;9.104;2023-03-01T14:50:48;13.45;;;7.90;;
75634;SDS011;64227;48.724;9.104;2023-03-01T14:53:19;15.35;;;9.00;;
75634;SDS011;64227;48.724;9.104;2023-03-01T14:55:47;15.63;;;8.88;;
75634;SDS011;64227;48.724;9.104;2023-03-01T14:58:16;14.90;;;8.88;;
75634;SDS011;64227;48.724;9.104;2023-03-01T15:00:52;12.82;;;7.85;;
75634;SDS011;64227;48.724;9.104;2023-03-01T15:03:23;17.15;;;8.90;;
75634;SDS011;64227;48.724;9.104;2023-03-01T15:05:49;13.13;;;8.25;;
75634;SDS011;64227;48.724;9.104;2023-03-01T15:08:19;12.45;;;7.93;;
75634;SDS011;64227;48.724;9.104;2023-03-01T15:10:59;15.27;;;9.63;;
75634;SDS011;64227;48.724;9.104;2023-03-01T15:13:34;16.05;;;9.05;;
75634;SDS011;64227;48.724;9.104;2023-03-01T15:16:07;13.68;;;8.18;;
75634;SDS011;64227;48.724;9.104;2023-03-01T15:18:45;13.10;;;8.02;;
75634;SDS011;64227;48.724;9.104;2023-03-01T15:21:25;15.15;;;8.68;;
75634;SDS011;64227;48.724;9.104;2023-03-01T15:23:53;13.82;;;8.60;;
75634;SDS011;64227;48.724;9.104;2023-03-01T15:28:54;12.90;;;7.38;;
75634;SDS011;64227;48.724;9.104;2023-03-01T15:36:52;16.75;;;9.60;;
75634;SDS011;64227;48.724;9.104;2023-03-01T15:39:23;18.95;;;9.85;;
75634;SDS011;64227;48.724;9.104;2023-03-01T15:45:06;14.10;;;8.68;;
75634;SDS011;64227;48.724;9.104;2023-03-01T15:47:36;17.80;;;9.70;;
75634;SDS011;64227;48.724;9.104;2023-03-01T15:50:04;14.77;;;9.48;;
75634;SDS011;64227;48.724;9.104;2023-03-01T15:52:34;13.45;;;8.02;;
75634;SDS011;64227;48.724;9.104;2023-03-01T15:55:05;14.05;;;8.68;;
75634;SDS011;64227;48.724;9.104;2023-03-01T15:57:38;16.77;;;9.48;;
75634;SDS011;64227;48.724;9.104;2023-03-01T16:00:03;16.40;;;8.70;;
75634;SDS011;64227;48.724;9.104;2023-03-01T16:02:36;17.35;;;9.13;;
75634;SDS011;64227;48.724;9.104;2023-03-01T16:05:01;18.88;;;8.98;;
75634;SDS011;64227;48.724;9.104;2023-03-01T16:07:26;16.75;;;8.95;;
75634;SDS011;64227;48.724;9.104;2023-03-01T16:09:52;14.57;;;8.63;;
75634;SDS011;64227;48.724;9.104;2023-03-01T16:12:18;16.90;;;8.30;;
75634;SDS011;64227;48.724;9.104;2023-03-01T16:14:45;12.82;;;6.65;;
75634;SDS011;64227;48.724;9.104;2023-03-01T16:17:10;12.45;;;6.93;;
75634;SDS011;64227;48.724;9.104;2023-03-01T16:19:36;17.88;;;8.57;;
75634;SDS011;64227;48.724;9.104;2023-03-01T16:22:02;14.80;;;8.35;;
75634;SDS011;64227;48.724;9.104;2023-03-01T16:24:28;12.35;;;7.32;;
75634;SDS011;64227;48.724;9.104;2023-03-01T16:26:53;13.65;;;7.20;;
75634;SDS011;64227;48.724;9.104;2023-03-01T16:29:18;17.87;;;8.40;;
75634;SDS011;64227;48.724;9.104;2023-03-01T16:31:44;13.80;;;7.82;;
75634;SDS011;64227;48.724;9.104;2023-03-01T16:34:09;15.95;;;8.02;;
75634;SDS011;64227;48.724;9.104;2023-03-01T16:36:36;14.95;;;7.70;;
75634;SDS011;64227;48.724;9.104;2023-03-01T16:39:01;14.68;;;7.35;;
75634;SDS011;64227;48.724;9.104;2023-03-01T16:41:28;16.75;;;8.15;;
75634;SDS011;64227;48.724;9.104;2023-03-01T16:43:53;14.02;;;6.90;;